SBPV/PVH METAR and TAF weather

Enter ICAO airport designator
Station Type Date Time Source
SBPV METAR 2021/03/08 15:00 UTC NOAA

SBPV 081500Z 06005KT 9999 SCT013 SCT020 FEW025TCU BKN090 29/25 Q1012


Station Type Date Time Source
SBPV Decoded METAR 2021/03/08 15:00 UTC NOAA

Porto Velho Aeroporto , Brazil (SBPV) 08-46S 063-55W 102M
Mar 08, 2021 - 10:00 AM EST / 2021.03.08 1500 UTC
Wind: from the ENE (060 degrees) at 6 MPH (5 KT):0
Visibility: greater than 7 mile(s):0
Sky conditions: mostly cloudy
Weather: Towering cumulus clouds observed
Temperature: 84 F (29 C)
Dew Point: 77 F (25 C)
Relative Humidity: 79%
Pressure (altimeter): 29.88 in. Hg (1012 hPa)
ob: SBPV 081500Z 06005KT 9999 SCT013 SCT020 FEW025TCU BKN090 29/25 Q1012
cycle: 15

Station Type Date Time Source
SBPV TAF 2021/03/08 18:36 UTC NOAA

TAF TAF SBPV 081500Z 0818/0918 36005KT 9999 SCT030 FEW035TCU TX30/0818Z TN24/0907Z PROB30 0905/0910 BKN005
RMK PHD

Example: see airport list